Ridgefield, WA

9:55 AM PDT on August 30, 2014 (GMT -0700)
KWARIDGE7 | Change Station
CLOSE
Current Station
Personal Weather Station
Location: Ridgefield, WA
Elevation: 268 ft
Nearby Weather Stations

Elev 268 ft 45.78 °N, 122.62 °W | Updated 4 seconds ago

Overcast
Overcast
61.9 °F
Feels Like 61.9 °F
N
3.5
Wind Variable Wind from NE
Gusts 3.5 mph

Today
High -- | Low -- °F
--% Chance of Precip.
Yesterday
High -- | Low -- °F
Precip. -- in
6:29 AM 7:52 PM
Waxing Crescent, 23% visible
Pressure 29.92 in
Visibility 10.0 miles
Clouds Few 2000 ft
Mostly Cloudy 2800 ft
Overcast 4100 ft
Dew Point 52 °F
Humidity 69%
Rainfall 0.03 in
Snow Depth Not available.
UV 1 out of 12
Pollen 3.40 out of 12
Air Quality Not available.
Flu Activity Not available.
SPECI KSPB 301651Z AUTO 16005KT 10SM FEW020 BKN028 OVC041 17/15 A2992 RMK AO2 RAB15E38 P0000

More Conditions Fewer Conditions

Pressure 29.92 in
Visibility 10.0 miles
Clouds Few 2000 ft
Mostly Cloudy 2800 ft
Overcast 4100 ft
Dew Point 52 °F
Humidity 69%
Rainfall 0.03 in
Snow Depth Not available.
UV 1 out of 12
Pollen 3.40 out of 12
Air Quality Not available.
Flu Activity Not available.
SPECI KSPB 301651Z AUTO 16005KT 10SM FEW020 BKN028 OVC041 17/15 A2992 RMK AO2 RAB15E38 P0000

More Conditions Fewer Conditions

10-Day Weather Forecast

Almanac

Astronomy

Aug. 30, 2014 Rise Set
Actual Time 6:29 AM PDT 7:52 PM PDT
Civil Twilight 5:58 AM PDT 8:23 PM PDT
Nautical Twilight 5:21 AM PDT 9:00 PM PDT
Astronomical Twilight 4:41 AM PDT 9:39 PM PDT
Moon 11:39 AM PDT 10:12 PM PDT
Length of Visible Light 14h 24m
Length of Day
13h 22m
Tomorrow will be 3m 5s shorter.
Waxing Crescent, 23% of the Moon is Illuminated
Today
Waxing Crescent
Sep 2
First Quarter
Sep 8
Full
Sep 15
Last Quarter
Sep 24
New

Today's Extremes

State Highs State Lows

Community

WunderPhotos

Upload Photos

1,748,562 photos uploaded!

WunderBlogs® & News

Nearby

Snow Depth

Station Depth Elevation
Sheep Canyon 0 in 4030 ft
June Lake 0 in 3340 ft
Swift Creek 2 in 3770 ft
Spirit Lake 0 in 3120 ft
Spencer Meadow 0 in 3400 ft

Earthquake Activity

City Distance Mag. Time & Date
No recent earthquake activity has been reported nearby.
Minimum magnitude displayed is 2.5.

Coastal Water Temperatures

Place Temperature
No Stations Reporting

Nearby Weather Stations